Decoded Metar for VOBM ( in ) (IATA:) | Meteo·Mobile Aviation Weather
aviador You're here:

VOBM Decoded Metar

in
Report Time2019-02-22 04:00:00
UTC Time2019-02-22 04:25:37
Flight Rules vfr VFR
Wind090° at 03 kt
W.Decomp.*RWY 08: 3.0 kt HW 0.5 kt RCW
W.Rank090° ranks 4
Current wind is below 090° avg. (5.8)
Visibility9999 m
Phenomena:N/A
Clouds:N/A
Expected CloudBase > 6,800 ft AGL from Temp-Dew spread
CeilingNone
Temp29°C
Dew Point12°C (35% RH)
Heat Index28.2°C
AAT28.5°C
QNH1021 hPa
Raw Report
METAR VOBM 220400Z 09003KT CAVOK 29/12 Q1021=####018000078####
SAIN90 VIAR 220400

Extra information for VOBM:More info

Social comments